createdAt,value
2019-05-06T07:03:16.196Z,9.50
2019-05-06T07:10:42.806Z,9.40
2019-05-06T07:39:48.796Z,9.30
2019-05-06T07:45:13.758Z,9.10
2019-05-06T07:51:04.602Z,9.70
2019-05-06T07:57:02.975Z,9.00
2019-05-06T08:07:42.875Z,8.50
2019-05-06T08:12:38.836Z,5.90
2019-05-06T08:18:05.366Z,6.80
2019-05-06T08:23:16.937Z,5.60
2019-05-06T08:28:44.681Z,5.50
2019-05-06T08:33:53.695Z,5.60
2019-05-06T08:39:36.481Z,6.00
2019-05-06T08:44:38.147Z,5.30
2019-05-06T08:49:45.291Z,5.40
2019-05-06T08:55:05.360Z,5.90
2019-05-06T09:05:35.884Z,6.30
2019-05-06T09:16:08.287Z,7.10
2019-05-06T09:21:42.392Z,7.60
2019-05-06T09:27:29.913Z,8.00
2019-05-06T09:32:39.270Z,8.10
2019-05-06T09:38:19.320Z,8.70
2019-05-06T09:43:43.859Z,10.40
2019-05-06T09:50:56.124Z,11.40
2019-05-06T09:56:48.290Z,12.00
2019-05-06T10:02:23.568Z,12.40
2019-05-06T10:07:59.444Z,12.50
2019-05-06T10:13:59.898Z,13.80
2019-05-06T10:18:56.076Z,11.50
2019-05-06T10:23:53.412Z,12.30
2019-05-06T10:28:52.946Z,12.30
2019-05-06T10:34:03.531Z,11.50
2019-05-06T10:39:02.801Z,9.10
2019-05-06T10:44:13.481Z,9.00
2019-05-06T10:49:38.345Z,8.70
2019-05-06T11:11:30.762Z,9.30
2019-05-06T11:16:36.534Z,5.70
2019-05-06T11:22:00.457Z,6.60
2019-05-06T11:27:44.901Z,7.50
2019-05-06T11:32:44.374Z,6.50
2019-05-06T11:37:55.605Z,7.10
2019-05-06T11:43:08.759Z,5.70
2019-05-06T11:48:45.742Z,6.30
2019-05-06T11:53:54.794Z,5.30
2019-05-06T11:58:53.735Z,4.80
2019-05-06T12:03:47.800Z,4.40
2019-05-06T12:08:52.955Z,5.10
2019-05-06T12:14:26.591Z,5.80
2019-05-06T12:20:13.639Z,6.00
2019-05-06T12:25:24.162Z,6.00
2019-05-06T12:30:43.239Z,6.80
2019-05-06T12:37:54.545Z,7.70
2019-05-06T12:43:03.810Z,7.00
2019-05-06T12:48:15.258Z,7.00
2019-05-06T12:53:23.852Z,7.10
2019-05-06T12:58:24.991Z,7.50
2019-05-06T13:03:43.616Z,7.40
2019-05-06T13:10:05.691Z,7.60
2019-05-06T13:15:28.835Z,7.60
2019-05-06T13:20:34.578Z,8.00
2019-05-06T13:25:28.534Z,7.90
2019-05-06T13:30:18.987Z,7.10
2019-05-06T13:35:16.289Z,8.60
2019-05-06T13:40:27.839Z,8.00
2019-05-06T13:45:35.793Z,7.90
2019-05-06T13:50:33.059Z,7.60
2019-05-06T13:55:43.550Z,8.20
2019-05-06T14:00:48.688Z,8.10
2019-05-06T14:05:47.884Z,7.70
2019-05-06T14:11:00.003Z,7.20
2019-05-06T14:16:25.354Z,8.30
2019-05-06T14:21:42.846Z,8.40
2019-05-06T14:26:45.413Z,8.70
2019-05-06T14:31:57.836Z,8.10
2019-05-06T14:36:53.960Z,8.00
2019-05-06T14:41:53.852Z,7.40
2019-05-06T14:47:00.851Z,9.10
2019-05-06T14:52:05.305Z,8.90
2019-05-06T14:57:13.120Z,9.80
2019-05-06T15:02:19.430Z,10.10
2019-05-06T15:08:08.246Z,12.40
2019-05-06T15:13:13.732Z,10.80
2019-05-06T15:18:55.462Z,10.80
2019-05-06T15:24:30.165Z,8.10
2019-05-06T15:29:54.775Z,7.50
2019-05-06T15:35:08.720Z,7.90
2019-05-06T15:40:31.664Z,7.60
2019-05-06T16:04:24.880Z,8.10
2019-05-06T16:17:20.029Z,6.40
2019-05-06T16:24:20.385Z,6.90
2019-05-06T16:29:13.606Z,6.10
2019-05-06T16:34:19.513Z,6.90
2019-05-06T16:46:47.787Z,8.60
2019-05-06T16:52:34.305Z,7.30
2019-05-06T16:58:02.939Z,7.20
2019-05-06T17:03:09.421Z,7.10
2019-05-06T17:13:53.171Z,7.50
2019-05-06T17:25:45.528Z,7.60
2019-05-06T17:32:22.839Z,7.50
2019-05-06T17:37:56.742Z,6.60
2019-05-06T17:43:23.077Z,6.90
2019-05-06T17:53:47.510Z,9.50
2019-05-06T18:04:34.204Z,10.10
2019-05-06T18:09:47.989Z,8.70
2019-05-06T18:14:58.258Z,9.00
2019-05-06T18:20:17.448Z,9.70
2019-05-06T18:36:39.565Z,13.30
2019-05-06T18:48:47.328Z,12.90
2019-05-06T18:57:14.874Z,16.60
2019-05-06T19:02:08.309Z,13.60
2019-05-06T19:10:18.551Z,13.50
2019-05-06T19:30:23.990Z,10.80
2019-05-06T20:10:46.463Z,11.40
2019-05-06T21:14:33.040Z,10.50
2019-05-06T21:20:07.950Z,8.90
2019-05-06T22:35:15.286Z,9.80
2019-05-06T22:56:41.984Z,9.70
2019-05-06T23:36:56.179Z,11.50
